sensor_id;sensor_type;location;lat;lon;timestamp;P1;durP1;ratioP1;P2;durP2;ratioP2
84260;SDS011;74405;44.868;18.808;2024-01-10T00:01:21;45.33;;;21.67;;
84260;SDS011;74405;44.868;18.808;2024-01-10T00:04:45;42.97;;;18.35;;
84260;SDS011;74405;44.868;18.808;2024-01-10T00:08:10;41.15;;;20.27;;
84260;SDS011;74405;44.868;18.808;2024-01-10T00:11:34;42.33;;;20.08;;
84260;SDS011;74405;44.868;18.808;2024-01-10T00:15:04;46.53;;;20.67;;
84260;SDS011;74405;44.868;18.808;2024-01-10T00:18:28;49.13;;;21.63;;
84260;SDS011;74405;44.868;18.808;2024-01-10T00:21:53;41.47;;;19.38;;
84260;SDS011;74405;44.868;18.808;2024-01-10T00:25:17;47.47;;;20.95;;
84260;SDS011;74405;44.868;18.808;2024-01-10T00:28:42;44.80;;;20.55;;
84260;SDS011;74405;44.868;18.808;2024-01-10T00:32:06;48.25;;;22.90;;
84260;SDS011;74405;44.868;18.808;2024-01-10T00:35:30;56.70;;;23.35;;
84260;SDS011;74405;44.868;18.808;2024-01-10T00:38:55;48.35;;;22.70;;
84260;SDS011;74405;44.868;18.808;2024-01-10T00:42:19;50.05;;;22.95;;
84260;SDS011;74405;44.868;18.808;2024-01-10T00:45:43;59.60;;;24.70;;
84260;SDS011;74405;44.868;18.808;2024-01-10T00:49:07;42.92;;;19.60;;
84260;SDS011;74405;44.868;18.808;2024-01-10T00:52:31;53.17;;;24.10;;
84260;SDS011;74405;44.868;18.808;2024-01-10T00:55:56;58.25;;;23.90;;
84260;SDS011;74405;44.868;18.808;2024-01-10T00:59:20;48.72;;;22.30;;
84260;SDS011;74405;44.868;18.808;2024-01-10T01:02:44;62.20;;;25.40;;
84260;SDS011;74405;44.868;18.808;2024-01-10T01:06:08;63.65;;;26.48;;
84260;SDS011;74405;44.868;18.808;2024-01-10T01:09:33;69.10;;;26.30;;
84260;SDS011;74405;44.868;18.808;2024-01-10T01:12:57;63.22;;;26.40;;
84260;SDS011;74405;44.868;18.808;2024-01-10T01:16:21;65.20;;;26.92;;
84260;SDS011;74405;44.868;18.808;2024-01-10T01:19:45;51.90;;;20.40;;
84260;SDS011;74405;44.868;18.808;2024-01-10T01:23:10;50.58;;;24.13;;
84260;SDS011;74405;44.868;18.808;2024-01-10T01:26:34;53.15;;;24.08;;
84260;SDS011;74405;44.868;18.808;2024-01-10T01:29:58;55.03;;;22.92;;
84260;SDS011;74405;44.868;18.808;2024-01-10T01:33:22;55.65;;;21.60;;
84260;SDS011;74405;44.868;18.808;2024-01-10T01:36:47;57.50;;;25.17;;
84260;SDS011;74405;44.868;18.808;2024-01-10T01:40:11;58.13;;;25.05;;
84260;SDS011;74405;44.868;18.808;2024-01-10T01:43:36;65.07;;;27.17;;
84260;SDS011;74405;44.868;18.808;2024-01-10T01:47:00;54.85;;;25.45;;
84260;SDS011;74405;44.868;18.808;2024-01-10T01:50:25;63.08;;;27.05;;
84260;SDS011;74405;44.868;18.808;2024-01-10T01:53:50;53.60;;;25.20;;
84260;SDS011;74405;44.868;18.808;2024-01-10T01:57:14;67.82;;;27.70;;
84260;SDS011;74405;44.868;18.808;2024-01-10T02:00:39;60.40;;;25.20;;
84260;SDS011;74405;44.868;18.808;2024-01-10T02:04:04;60.45;;;24.70;;
84260;SDS011;74405;44.868;18.808;2024-01-10T02:07:29;58.05;;;23.75;;
84260;SDS011;74405;44.868;18.808;2024-01-10T02:10:53;69.43;;;26.75;;
84260;SDS011;74405;44.868;18.808;2024-01-10T02:14:17;64.57;;;27.25;;
84260;SDS011;74405;44.868;18.808;2024-01-10T02:17:42;66.18;;;27.13;;
84260;SDS011;74405;44.868;18.808;2024-01-10T02:21:06;63.55;;;27.20;;
84260;SDS011;74405;44.868;18.808;2024-01-10T02:24:30;63.55;;;25.40;;
84260;SDS011;74405;44.868;18.808;2024-01-10T02:27:54;69.15;;;28.30;;
84260;SDS011;74405;44.868;18.808;2024-01-10T02:31:19;68.55;;;25.25;;
84260;SDS011;74405;44.868;18.808;2024-01-10T02:34:43;61.63;;;27.63;;
84260;SDS011;74405;44.868;18.808;2024-01-10T02:38:07;72.47;;;28.83;;
84260;SDS011;74405;44.868;18.808;2024-01-10T02:41:32;72.10;;;29.30;;
84260;SDS011;74405;44.868;18.808;2024-01-10T02:44:56;73.53;;;25.92;;
84260;SDS011;74405;44.868;18.808;2024-01-10T02:48:21;78.32;;;29.80;;
84260;SDS011;74405;44.868;18.808;2024-01-10T02:51:45;77.38;;;29.38;;
84260;SDS011;74405;44.868;18.808;2024-01-10T02:55:09;77.20;;;29.63;;
84260;SDS011;74405;44.868;18.808;2024-01-10T02:58:33;87.95;;;31.83;;
84260;SDS011;74405;44.868;18.808;2024-01-10T03:01:57;87.88;;;30.73;;
84260;SDS011;74405;44.868;18.808;2024-01-10T03:05:21;81.80;;;30.13;;
84260;SDS011;74405;44.868;18.808;2024-01-10T03:08:46;82.70;;;29.02;;
84260;SDS011;74405;44.868;18.808;2024-01-10T03:12:10;76.45;;;28.08;;
84260;SDS011;74405;44.868;18.808;2024-01-10T03:15:35;79.18;;;28.63;;
84260;SDS011;74405;44.868;18.808;2024-01-10T03:18:59;72.57;;;28.38;;
84260;SDS011;74405;44.868;18.808;2024-01-10T03:22:23;76.25;;;27.23;;
84260;SDS011;74405;44.868;18.808;2024-01-10T03:25:48;73.20;;;26.13;;
84260;SDS011;74405;44.868;18.808;2024-01-10T03:29:12;69.10;;;26.73;;
84260;SDS011;74405;44.868;18.808;2024-01-10T03:32:36;71.15;;;26.92;;
84260;SDS011;74405;44.868;18.808;2024-01-10T03:36:00;70.90;;;26.85;;
84260;SDS011;74405;44.868;18.808;2024-01-10T03:39:24;66.68;;;26.45;;
84260;SDS011;74405;44.868;18.808;2024-01-10T03:42:48;81.05;;;27.58;;
84260;SDS011;74405;44.868;18.808;2024-01-10T03:46:13;73.53;;;28.42;;
84260;SDS011;74405;44.868;18.808;2024-01-10T03:49:37;71.05;;;28.52;;
84260;SDS011;74405;44.868;18.808;2024-01-10T03:53:01;81.13;;;29.45;;
84260;SDS011;74405;44.868;18.808;2024-01-10T03:56:25;82.97;;;28.10;;
84260;SDS011;74405;44.868;18.808;2024-01-10T03:59:49;76.43;;;26.27;;
84260;SDS011;74405;44.868;18.808;2024-01-10T04:03:14;72.57;;;27.15;;
84260;SDS011;74405;44.868;18.808;2024-01-10T04:06:38;75.43;;;29.83;;
84260;SDS011;74405;44.868;18.808;2024-01-10T04:10:02;75.28;;;27.33;;
84260;SDS011;74405;44.868;18.808;2024-01-10T04:13:28;78.72;;;28.33;;
84260;SDS011;74405;44.868;18.808;2024-01-10T04:16:53;81.13;;;27.52;;
84260;SDS011;74405;44.868;18.808;2024-01-10T04:20:17;83.03;;;28.92;;
84260;SDS011;74405;44.868;18.808;2024-01-10T04:23:41;74.53;;;26.50;;
84260;SDS011;74405;44.868;18.808;2024-01-10T04:27:05;68.85;;;26.23;;
84260;SDS011;74405;44.868;18.808;2024-01-10T04:30:30;70.20;;;27.60;;
84260;SDS011;74405;44.868;18.808;2024-01-10T04:33:54;76.78;;;28.25;;
84260;SDS011;74405;44.868;18.808;2024-01-10T04:37:18;65.60;;;24.30;;
84260;SDS011;74405;44.868;18.808;2024-01-10T04:40:42;70.40;;;28.20;;
84260;SDS011;74405;44.868;18.808;2024-01-10T04:44:06;68.97;;;27.95;;
84260;SDS011;74405;44.868;18.808;2024-01-10T04:47:32;66.47;;;24.92;;
84260;SDS011;74405;44.868;18.808;2024-01-10T04:50:56;71.80;;;26.67;;
84260;SDS011;74405;44.868;18.808;2024-01-10T04:54:21;59.78;;;23.73;;
84260;SDS011;74405;44.868;18.808;2024-01-10T04:57:45;70.60;;;26.20;;
84260;SDS011;74405;44.868;18.808;2024-01-10T05:01:10;55.58;;;23.77;;
84260;SDS011;74405;44.868;18.808;2024-01-10T05:04:34;60.38;;;24.67;;
84260;SDS011;74405;44.868;18.808;2024-01-10T05:07:58;64.43;;;23.38;;
84260;SDS011;74405;44.868;18.808;2024-01-10T05:11:23;60.42;;;25.42;;
84260;SDS011;74405;44.868;18.808;2024-01-10T05:14:48;71.75;;;25.65;;
84260;SDS011;74405;44.868;18.808;2024-01-10T05:18:12;69.15;;;26.92;;
84260;SDS011;74405;44.868;18.808;2024-01-10T05:21:36;70.53;;;25.20;;
84260;SDS011;74405;44.868;18.808;2024-01-10T05:25:01;76.22;;;28.92;;
84260;SDS011;74405;44.868;18.808;2024-01-10T05:28:25;71.25;;;27.20;;
84260;SDS011;74405;44.868;18.808;2024-01-10T05:31:51;73.40;;;27.75;;
84260;SDS011;74405;44.868;18.808;2024-01-10T05:35:15;78.13;;;29.25;;
84260;SDS011;74405;44.868;18.808;2024-01-10T05:38:39;72.72;;;28.05;;
84260;SDS011;74405;44.868;18.808;2024-01-10T05:42:04;80.72;;;28.52;;
84260;SDS011;74405;44.868;18.808;2024-01-10T05:45:28;82.53;;;30.48;;
84260;SDS011;74405;44.868;18.808;2024-01-10T05:48:53;81.20;;;29.90;;
84260;SDS011;74405;44.868;18.808;2024-01-10T05:52:20;79.88;;;29.35;;
84260;SDS011;74405;44.868;18.808;2024-01-10T05:55:44;90.35;;;31.77;;
84260;SDS011;74405;44.868;18.808;2024-01-10T05:59:08;75.18;;;27.83;;
84260;SDS011;74405;44.868;18.808;2024-01-10T06:02:36;78.22;;;27.10;;
84260;SDS011;74405;44.868;18.808;2024-01-10T06:06:00;82.63;;;28.73;;
84260;SDS011;74405;44.868;18.808;2024-01-10T06:09:25;77.47;;;27.75;;
84260;SDS011;74405;44.868;18.808;2024-01-10T06:12:49;90.40;;;30.02;;
84260;SDS011;74405;44.868;18.808;2024-01-10T06:16:13;81.10;;;30.48;;
84260;SDS011;74405;44.868;18.808;2024-01-10T06:19:38;82.90;;;31.63;;
84260;SDS011;74405;44.868;18.808;2024-01-10T06:23:04;83.82;;;28.08;;
84260;SDS011;74405;44.868;18.808;2024-01-10T06:26:29;91.05;;;30.25;;
84260;SDS011;74405;44.868;18.808;2024-01-10T06:29:53;73.43;;;29.92;;
84260;SDS011;74405;44.868;18.808;2024-01-10T06:33:17;78.47;;;30.13;;
84260;SDS011;74405;44.868;18.808;2024-01-10T06:36:41;83.22;;;28.27;;
84260;SDS011;74405;44.868;18.808;2024-01-10T06:40:06;74.90;;;27.92;;
84260;SDS011;74405;44.868;18.808;2024-01-10T06:43:39;74.28;;;28.13;;
84260;SDS011;74405;44.868;18.808;2024-01-10T06:47:05;72.03;;;26.23;;
84260;SDS011;74405;44.868;18.808;2024-01-10T06:50:29;63.30;;;24.58;;
84260;SDS011;74405;44.868;18.808;2024-01-10T06:53:53;87.63;;;31.00;;
84260;SDS011;74405;44.868;18.808;2024-01-10T06:57:17;73.15;;;29.25;;
84260;SDS011;74405;44.868;18.808;2024-01-10T07:00:41;85.35;;;26.13;;
84260;SDS011;74405;44.868;18.808;2024-01-10T07:04:06;84.03;;;28.52;;
84260;SDS011;74405;44.868;18.808;2024-01-10T07:07:34;77.47;;;27.55;;
84260;SDS011;74405;44.868;18.808;2024-01-10T07:10:58;83.57;;;27.63;;
84260;SDS011;74405;44.868;18.808;2024-01-10T07:14:22;76.68;;;28.95;;
84260;SDS011;74405;44.868;18.808;2024-01-10T07:17:47;78.75;;;29.13;;
84260;SDS011;74405;44.868;18.808;2024-01-10T07:21:12;77.63;;;27.35;;
84260;SDS011;74405;44.868;18.808;2024-01-10T07:24:37;79.95;;;26.65;;
84260;SDS011;74405;44.868;18.808;2024-01-10T07:28:02;80.18;;;27.00;;
84260;SDS011;74405;44.868;18.808;2024-01-10T07:31:30;97.53;;;29.70;;
84260;SDS011;74405;44.868;18.808;2024-01-10T07:34:54;75.40;;;27.27;;
84260;SDS011;74405;44.868;18.808;2024-01-10T07:38:20;71.32;;;26.20;;
84260;SDS011;74405;44.868;18.808;2024-01-10T07:41:44;71.95;;;23.40;;
84260;SDS011;74405;44.868;18.808;2024-01-10T07:45:08;75.57;;;25.83;;
84260;SDS011;74405;44.868;18.808;2024-01-10T07:48:32;61.10;;;21.83;;
84260;SDS011;74405;44.868;18.808;2024-01-10T07:51:57;72.30;;;25.30;;
84260;SDS011;74405;44.868;18.808;2024-01-10T07:55:22;65.32;;;22.35;;
84260;SDS011;74405;44.868;18.808;2024-01-10T07:58:46;53.45;;;20.45;;
84260;SDS011;74405;44.868;18.808;2024-01-10T08:02:10;75.13;;;25.10;;
84260;SDS011;74405;44.868;18.808;2024-01-10T08:05:35;69.18;;;26.00;;
84260;SDS011;74405;44.868;18.808;2024-01-10T08:09:00;72.72;;;24.83;;
84260;SDS011;74405;44.868;18.808;2024-01-10T08:12:24;67.63;;;27.20;;
84260;SDS011;74405;44.868;18.808;2024-01-10T08:15:49;88.30;;;30.65;;
84260;SDS011;74405;44.868;18.808;2024-01-10T08:19:13;69.45;;;25.15;;
84260;SDS011;74405;44.868;18.808;2024-01-10T08:22:40;72.93;;;25.88;;
84260;SDS011;74405;44.868;18.808;2024-01-10T08:26:07;72.22;;;27.65;;
84260;SDS011;74405;44.868;18.808;2024-01-10T08:29:31;69.20;;;25.90;;
84260;SDS011;74405;44.868;18.808;2024-01-10T08:32:57;75.80;;;25.58;;
84260;SDS011;74405;44.868;18.808;2024-01-10T08:36:22;73.97;;;29.45;;
84260;SDS011;74405;44.868;18.808;2024-01-10T08:39:47;80.10;;;30.35;;
84260;SDS011;74405;44.868;18.808;2024-01-10T08:43:11;59.90;;;24.65;;
84260;SDS011;74405;44.868;18.808;2024-01-10T08:46:35;74.13;;;28.85;;
84260;SDS011;74405;44.868;18.808;2024-01-10T08:50:00;76.65;;;29.73;;
84260;SDS011;74405;44.868;18.808;2024-01-10T08:53:25;69.55;;;25.65;;
84260;SDS011;74405;44.868;18.808;2024-01-10T08:56:50;55.45;;;22.65;;
84260;SDS011;74405;44.868;18.808;2024-01-10T09:00:15;68.05;;;26.33;;
84260;SDS011;74405;44.868;18.808;2024-01-10T09:03:39;73.40;;;27.52;;
84260;SDS011;74405;44.868;18.808;2024-01-10T09:07:03;60.85;;;24.30;;
84260;SDS011;74405;44.868;18.808;2024-01-10T09:10:28;70.47;;;25.42;;
84260;SDS011;74405;44.868;18.808;2024-01-10T09:13:52;78.22;;;26.60;;
84260;SDS011;74405;44.868;18.808;2024-01-10T09:17:16;72.70;;;26.80;;
84260;SDS011;74405;44.868;18.808;2024-01-10T09:20:40;60.90;;;21.48;;
84260;SDS011;74405;44.868;18.808;2024-01-10T09:24:05;59.92;;;25.50;;
84260;SDS011;74405;44.868;18.808;2024-01-10T09:27:31;74.82;;;27.80;;
84260;SDS011;74405;44.868;18.808;2024-01-10T09:30:55;78.05;;;26.15;;
84260;SDS011;74405;44.868;18.808;2024-01-10T09:34:20;76.80;;;28.77;;
84260;SDS011;74405;44.868;18.808;2024-01-10T09:37:44;63.03;;;27.63;;
84260;SDS011;74405;44.868;18.808;2024-01-10T09:41:08;64.97;;;25.30;;
84260;SDS011;74405;44.868;18.808;2024-01-10T09:44:34;68.30;;;26.90;;
84260;SDS011;74405;44.868;18.808;2024-01-10T09:48:11;71.20;;;25.50;;
84260;SDS011;74405;44.868;18.808;2024-01-10T09:51:37;62.10;;;20.13;;
84260;SDS011;74405;44.868;18.808;2024-01-10T09:55:07;62.75;;;25.42;;
84260;SDS011;74405;44.868;18.808;2024-01-10T09:58:34;77.30;;;28.27;;
84260;SDS011;74405;44.868;18.808;2024-01-10T10:01:59;77.70;;;29.45;;
84260;SDS011;74405;44.868;18.808;2024-01-10T10:05:24;74.05;;;28.55;;
84260;SDS011;74405;44.868;18.808;2024-01-10T10:08:48;76.43;;;29.08;;
84260;SDS011;74405;44.868;18.808;2024-01-10T10:12:13;64.97;;;26.13;;
84260;SDS011;74405;44.868;18.808;2024-01-10T10:15:57;70.78;;;28.83;;
84260;SDS011;74405;44.868;18.808;2024-01-10T10:19:24;66.70;;;27.10;;
84260;SDS011;74405;44.868;18.808;2024-01-10T10:23:00;75.70;;;28.88;;
84260;SDS011;74405;44.868;18.808;2024-01-10T10:26:29;79.53;;;29.35;;
84260;SDS011;74405;44.868;18.808;2024-01-10T10:29:56;75.53;;;26.77;;
84260;SDS011;74405;44.868;18.808;2024-01-10T10:33:20;68.25;;;26.52;;
84260;SDS011;74405;44.868;18.808;2024-01-10T10:36:48;64.55;;;26.67;;
84260;SDS011;74405;44.868;18.808;2024-01-10T10:40:13;66.65;;;23.25;;
84260;SDS011;74405;44.868;18.808;2024-01-10T10:43:39;66.38;;;24.58;;
84260;SDS011;74405;44.868;18.808;2024-01-10T10:47:06;57.25;;;23.42;;
84260;SDS011;74405;44.868;18.808;2024-01-10T10:50:35;65.57;;;23.15;;
84260;SDS011;74405;44.868;18.808;2024-01-10T10:53:59;59.70;;;21.95;;
84260;SDS011;74405;44.868;18.808;2024-01-10T10:57:27;58.42;;;22.65;;
84260;SDS011;74405;44.868;18.808;2024-01-10T11:00:53;64.00;;;24.83;;
84260;SDS011;74405;44.868;18.808;2024-01-10T11:04:19;60.83;;;22.88;;
84260;SDS011;74405;44.868;18.808;2024-01-10T11:07:45;54.83;;;23.63;;
84260;SDS011;74405;44.868;18.808;2024-01-10T11:27:11;61.65;;;24.23;;
84260;SDS011;74405;44.868;18.808;2024-01-10T11:30:48;58.28;;;23.65;;
84260;SDS011;74405;44.868;18.808;2024-01-10T11:34:15;57.45;;;23.02;;
84260;SDS011;74405;44.868;18.808;2024-01-10T11:37:45;64.88;;;25.17;;
84260;SDS011;74405;44.868;18.808;2024-01-10T11:41:20;62.70;;;25.00;;
84260;SDS011;74405;44.868;18.808;2024-01-10T11:44:49;61.85;;;22.75;;
84260;SDS011;74405;44.868;18.808;2024-01-10T11:48:25;72.88;;;24.92;;
84260;SDS011;74405;44.868;18.808;2024-01-10T11:51:57;46.67;;;20.65;;
84260;SDS011;74405;44.868;18.808;2024-01-10T11:59:09;55.92;;;22.80;;
84260;SDS011;74405;44.868;18.808;2024-01-10T12:02:35;63.17;;;25.98;;
84260;SDS011;74405;44.868;18.808;2024-01-10T12:06:00;58.72;;;24.75;;
84260;SDS011;74405;44.868;18.808;2024-01-10T12:09:25;63.75;;;25.33;;
84260;SDS011;74405;44.868;18.808;2024-01-10T12:12:51;61.20;;;24.27;;
84260;SDS011;74405;44.868;18.808;2024-01-10T12:16:15;58.42;;;25.25;;
84260;SDS011;74405;44.868;18.808;2024-01-10T12:19:39;56.15;;;25.63;;
84260;SDS011;74405;44.868;18.808;2024-01-10T12:23:04;54.08;;;25.75;;
84260;SDS011;74405;44.868;18.808;2024-01-10T12:26:31;55.78;;;26.60;;
84260;SDS011;74405;44.868;18.808;2024-01-10T12:29:56;53.30;;;25.58;;
84260;SDS011;74405;44.868;18.808;2024-01-10T12:33:23;63.17;;;28.48;;
84260;SDS011;74405;44.868;18.808;2024-01-10T12:36:47;61.00;;;27.88;;
84260;SDS011;74405;44.868;18.808;2024-01-10T12:40:21;62.17;;;26.85;;
84260;SDS011;74405;44.868;18.808;2024-01-10T12:44:03;67.75;;;27.73;;
84260;SDS011;74405;44.868;18.808;2024-01-10T12:47:29;68.82;;;25.80;;
84260;SDS011;74405;44.868;18.808;2024-01-10T12:50:53;60.15;;;25.10;;
84260;SDS011;74405;44.868;18.808;2024-01-10T12:54:17;63.53;;;24.23;;
84260;SDS011;74405;44.868;18.808;2024-01-10T12:57:43;59.15;;;24.85;;
84260;SDS011;74405;44.868;18.808;2024-01-10T13:01:11;57.83;;;22.17;;
84260;SDS011;74405;44.868;18.808;2024-01-10T13:04:37;59.20;;;22.95;;
84260;SDS011;74405;44.868;18.808;2024-01-10T13:08:03;54.30;;;22.48;;
84260;SDS011;74405;44.868;18.808;2024-01-10T13:11:27;61.53;;;26.17;;
84260;SDS011;74405;44.868;18.808;2024-01-10T13:14:51;63.50;;;23.40;;
84260;SDS011;74405;44.868;18.808;2024-01-10T13:18:16;67.80;;;26.65;;
84260;SDS011;74405;44.868;18.808;2024-01-10T13:21:40;60.60;;;25.65;;
84260;SDS011;74405;44.868;18.808;2024-01-10T13:25:04;71.80;;;25.98;;
84260;SDS011;74405;44.868;18.808;2024-01-10T13:28:29;58.63;;;23.75;;
84260;SDS011;74405;44.868;18.808;2024-01-10T13:31:53;61.72;;;24.58;;
84260;SDS011;74405;44.868;18.808;2024-01-10T13:35:17;62.08;;;24.73;;
84260;SDS011;74405;44.868;18.808;2024-01-10T13:38:41;58.40;;;23.05;;
84260;SDS011;74405;44.868;18.808;2024-01-10T13:42:09;56.80;;;22.50;;
84260;SDS011;74405;44.868;18.808;2024-01-10T13:45:33;49.72;;;20.60;;
84260;SDS011;74405;44.868;18.808;2024-01-10T13:48:59;45.70;;;20.17;;
84260;SDS011;74405;44.868;18.808;2024-01-10T13:52:24;51.40;;;22.67;;
84260;SDS011;74405;44.868;18.808;2024-01-10T13:55:48;57.08;;;23.80;;
84260;SDS011;74405;44.868;18.808;2024-01-10T13:59:12;65.07;;;27.00;;
84260;SDS011;74405;44.868;18.808;2024-01-10T14:02:40;51.15;;;22.55;;
84260;SDS011;74405;44.868;18.808;2024-01-10T14:06:04;49.80;;;21.05;;
84260;SDS011;74405;44.868;18.808;2024-01-10T14:09:31;54.72;;;22.88;;
84260;SDS011;74405;44.868;18.808;2024-01-10T14:12:55;58.80;;;24.02;;
84260;SDS011;74405;44.868;18.808;2024-01-10T14:16:19;53.75;;;24.73;;
84260;SDS011;74405;44.868;18.808;2024-01-10T14:19:44;49.20;;;22.25;;
84260;SDS011;74405;44.868;18.808;2024-01-10T14:23:08;42.47;;;19.88;;
84260;SDS011;74405;44.868;18.808;2024-01-10T14:26:32;48.55;;;21.50;;
84260;SDS011;74405;44.868;18.808;2024-01-10T14:29:56;52.72;;;21.45;;
84260;SDS011;74405;44.868;18.808;2024-01-10T14:33:20;50.22;;;22.17;;
84260;SDS011;74405;44.868;18.808;2024-01-10T14:36:45;45.47;;;18.20;;
84260;SDS011;74405;44.868;18.808;2024-01-10T14:40:09;48.22;;;18.75;;
84260;SDS011;74405;44.868;18.808;2024-01-10T14:43:36;45.90;;;19.17;;
84260;SDS011;74405;44.868;18.808;2024-01-10T14:47:00;45.35;;;20.42;;
84260;SDS011;74405;44.868;18.808;2024-01-10T14:50:24;45.38;;;21.13;;
84260;SDS011;74405;44.868;18.808;2024-01-10T14:53:49;49.63;;;21.70;;
84260;SDS011;74405;44.868;18.808;2024-01-10T14:57:13;40.85;;;19.95;;
84260;SDS011;74405;44.868;18.808;2024-01-10T15:00:39;40.85;;;19.40;;
84260;SDS011;74405;44.868;18.808;2024-01-10T15:04:08;51.20;;;21.60;;
84260;SDS011;74405;44.868;18.808;2024-01-10T15:07:32;46.55;;;22.08;;
84260;SDS011;74405;44.868;18.808;2024-01-10T15:10:56;47.75;;;20.38;;
84260;SDS011;74405;44.868;18.808;2024-01-10T15:14:21;52.30;;;20.75;;
84260;SDS011;74405;44.868;18.808;2024-01-10T15:17:46;42.08;;;20.05;;
84260;SDS011;74405;44.868;18.808;2024-01-10T15:21:11;43.95;;;19.83;;
84260;SDS011;74405;44.868;18.808;2024-01-10T15:24:36;46.40;;;19.40;;
84260;SDS011;74405;44.868;18.808;2024-01-10T15:28:01;47.78;;;19.45;;
84260;SDS011;74405;44.868;18.808;2024-01-10T15:31:25;43.67;;;20.77;;
84260;SDS011;74405;44.868;18.808;2024-01-10T15:34:50;47.88;;;19.75;;
84260;SDS011;74405;44.868;18.808;2024-01-10T15:38:14;47.20;;;21.65;;
84260;SDS011;74405;44.868;18.808;2024-01-10T15:41:38;41.33;;;20.20;;
84260;SDS011;74405;44.868;18.808;2024-01-10T15:45:03;52.35;;;20.63;;
84260;SDS011;74405;44.868;18.808;2024-01-10T15:48:28;45.92;;;21.10;;
84260;SDS011;74405;44.868;18.808;2024-01-10T15:51:52;51.35;;;20.35;;
84260;SDS011;74405;44.868;18.808;2024-01-10T15:55:16;47.25;;;20.42;;
84260;SDS011;74405;44.868;18.808;2024-01-10T15:58:40;45.55;;;20.05;;
84260;SDS011;74405;44.868;18.808;2024-01-10T16:02:04;211.18;;;95.53;;
84260;SDS011;74405;44.868;18.808;2024-01-10T16:05:31;206.15;;;90.78;;
84260;SDS011;74405;44.868;18.808;2024-01-10T16:08:56;159.98;;;65.03;;
84260;SDS011;74405;44.868;18.808;2024-01-10T16:12:21;117.85;;;48.15;;
84260;SDS011;74405;44.868;18.808;2024-01-10T16:15:45;119.03;;;51.05;;
84260;SDS011;74405;44.868;18.808;2024-01-10T16:19:10;115.13;;;47.15;;
84260;SDS011;74405;44.868;18.808;2024-01-10T16:22:34;122.40;;;56.78;;
84260;SDS011;74405;44.868;18.808;2024-01-10T16:25:58;147.20;;;58.10;;
84260;SDS011;74405;44.868;18.808;2024-01-10T16:29:22;191.90;;;81.50;;
84260;SDS011;74405;44.868;18.808;2024-01-10T16:32:46;210.05;;;83.78;;
84260;SDS011;74405;44.868;18.808;2024-01-10T16:36:11;198.18;;;78.55;;
84260;SDS011;74405;44.868;18.808;2024-01-10T16:39:36;165.05;;;68.07;;
84260;SDS011;74405;44.868;18.808;2024-01-10T16:43:00;139.13;;;54.58;;
84260;SDS011;74405;44.868;18.808;2024-01-10T16:46:24;144.18;;;54.60;;
84260;SDS011;74405;44.868;18.808;2024-01-10T16:49:48;115.88;;;50.10;;
84260;SDS011;74405;44.868;18.808;2024-01-10T16:53:12;152.57;;;62.25;;
84260;SDS011;74405;44.868;18.808;2024-01-10T16:56:37;169.18;;;67.18;;
84260;SDS011;74405;44.868;18.808;2024-01-10T17:00:02;154.23;;;67.10;;
84260;SDS011;74405;44.868;18.808;2024-01-10T17:03:26;173.02;;;76.30;;
84260;SDS011;74405;44.868;18.808;2024-01-10T17:06:50;176.68;;;71.95;;
84260;SDS011;74405;44.868;18.808;2024-01-10T17:10:15;173.27;;;72.60;;
84260;SDS011;74405;44.868;18.808;2024-01-10T17:13:39;186.50;;;80.80;;
84260;SDS011;74405;44.868;18.808;2024-01-10T17:17:04;219.75;;;89.97;;
84260;SDS011;74405;44.868;18.808;2024-01-10T17:20:29;212.25;;;86.82;;
84260;SDS011;74405;44.868;18.808;2024-01-10T17:23:53;263.40;;;110.03;;
84260;SDS011;74405;44.868;18.808;2024-01-10T17:27:19;283.50;;;120.25;;
84260;SDS011;74405;44.868;18.808;2024-01-10T17:30:43;310.13;;;127.90;;
84260;SDS011;74405;44.868;18.808;2024-01-10T17:34:07;275.73;;;119.43;;
84260;SDS011;74405;44.868;18.808;2024-01-10T17:37:31;279.40;;;120.55;;
84260;SDS011;74405;44.868;18.808;2024-01-10T17:40:56;317.35;;;134.30;;
84260;SDS011;74405;44.868;18.808;2024-01-10T17:44:20;294.58;;;131.50;;
84260;SDS011;74405;44.868;18.808;2024-01-10T17:47:44;281.77;;;125.20;;
84260;SDS011;74405;44.868;18.808;2024-01-10T17:51:08;262.77;;;116.30;;
84260;SDS011;74405;44.868;18.808;2024-01-10T17:54:32;244.23;;;111.97;;
84260;SDS011;74405;44.868;18.808;2024-01-10T17:57:57;267.33;;;116.97;;
84260;SDS011;74405;44.868;18.808;2024-01-10T18:01:21;319.50;;;138.45;;
84260;SDS011;74405;44.868;18.808;2024-01-10T18:04:45;396.27;;;171.77;;
84260;SDS011;74405;44.868;18.808;2024-01-10T18:08:09;344.70;;;153.18;;
84260;SDS011;74405;44.868;18.808;2024-01-10T18:11:33;222.85;;;99.30;;
84260;SDS011;74405;44.868;18.808;2024-01-10T18:14:58;202.98;;;87.28;;
84260;SDS011;74405;44.868;18.808;2024-01-10T18:18:22;183.02;;;75.88;;
84260;SDS011;74405;44.868;18.808;2024-01-10T18:21:46;194.18;;;84.10;;
84260;SDS011;74405;44.868;18.808;2024-01-10T18:25:10;186.90;;;72.10;;
84260;SDS011;74405;44.868;18.808;2024-01-10T18:28:34;124.55;;;51.13;;
84260;SDS011;74405;44.868;18.808;2024-01-10T18:31:59;178.45;;;72.88;;
84260;SDS011;74405;44.868;18.808;2024-01-10T18:35:26;200.02;;;73.72;;
84260;SDS011;74405;44.868;18.808;2024-01-10T18:38:50;127.75;;;56.13;;
84260;SDS011;74405;44.868;18.808;2024-01-10T18:42:15;173.20;;;67.75;;
84260;SDS011;74405;44.868;18.808;2024-01-10T18:45:40;171.65;;;63.17;;
84260;SDS011;74405;44.868;18.808;2024-01-10T18:49:04;168.85;;;75.85;;
84260;SDS011;74405;44.868;18.808;2024-01-10T18:52:29;250.90;;;106.97;;
84260;SDS011;74405;44.868;18.808;2024-01-10T18:55:55;337.50;;;138.00;;
84260;SDS011;74405;44.868;18.808;2024-01-10T18:59:19;296.95;;;118.05;;
84260;SDS011;74405;44.868;18.808;2024-01-10T19:02:51;286.10;;;116.53;;
84260;SDS011;74405;44.868;18.808;2024-01-10T19:06:15;275.58;;;108.85;;
84260;SDS011;74405;44.868;18.808;2024-01-10T19:09:40;300.75;;;113.93;;
84260;SDS011;74405;44.868;18.808;2024-01-10T19:13:04;288.52;;;110.93;;
84260;SDS011;74405;44.868;18.808;2024-01-10T19:16:29;252.00;;;99.57;;
84260;SDS011;74405;44.868;18.808;2024-01-10T19:19:53;249.90;;;95.63;;
84260;SDS011;74405;44.868;18.808;2024-01-10T19:23:17;283.42;;;101.65;;
84260;SDS011;74405;44.868;18.808;2024-01-10T19:26:42;231.38;;;88.63;;
84260;SDS011;74405;44.868;18.808;2024-01-10T19:30:07;230.23;;;94.63;;
84260;SDS011;74405;44.868;18.808;2024-01-10T19:33:31;257.55;;;98.82;;
84260;SDS011;74405;44.868;18.808;2024-01-10T19:36:55;236.65;;;100.75;;
84260;SDS011;74405;44.868;18.808;2024-01-10T19:40:19;209.13;;;87.57;;
84260;SDS011;74405;44.868;18.808;2024-01-10T19:43:48;275.73;;;98.38;;
84260;SDS011;74405;44.868;18.808;2024-01-10T19:47:12;247.38;;;97.00;;
84260;SDS011;74405;44.868;18.808;2024-01-10T19:50:36;269.48;;;100.90;;
84260;SDS011;74405;44.868;18.808;2024-01-10T19:54:00;232.23;;;87.93;;
84260;SDS011;74405;44.868;18.808;2024-01-10T19:57:25;222.20;;;87.72;;